createdAt,value
2023-03-31T00:00:31.589Z,94.30
2023-03-31T00:02:58.794Z,94.52
2023-03-31T00:05:26.192Z,94.23
2023-03-31T00:08:01.204Z,94.22
2023-03-31T00:10:29.115Z,94.01
2023-03-31T00:12:55.690Z,94.27
2023-03-31T00:15:22.323Z,94.00
2023-03-31T00:17:49.985Z,94.02
2023-03-31T00:20:17.328Z,93.98
2023-03-31T00:22:46.754Z,94.25
2023-03-31T00:25:14.017Z,93.74
2023-03-31T00:27:46.780Z,93.36
2023-03-31T00:30:14.467Z,93.40
2023-03-31T00:32:41.304Z,93.29
2023-03-31T00:35:09.928Z,93.36
2023-03-31T00:37:36.535Z,93.53
2023-03-31T00:40:09.885Z,93.51
2023-03-31T00:42:41.197Z,93.16
2023-03-31T00:45:28.011Z,93.04
2023-03-31T00:48:03.710Z,93.23
2023-03-31T00:50:34.550Z,92.89
2023-03-31T00:53:03.338Z,93.34
2023-03-31T00:55:50.344Z,93.28
2023-03-31T00:58:20.305Z,93.29
2023-03-31T01:00:52.983Z,92.77
2023-03-31T01:03:22.816Z,92.89
2023-03-31T01:05:52.001Z,93.23
2023-03-31T01:08:24.451Z,93.24
2023-03-31T01:10:52.807Z,93.39
2023-03-31T01:13:20.083Z,93.15
2023-03-31T01:15:46.880Z,93.46
2023-03-31T01:18:14.700Z,93.49
2023-03-31T01:20:59.782Z,93.33
2023-03-31T01:23:44.854Z,93.79
2023-03-31T01:26:14.690Z,93.91
2023-03-31T01:28:46.945Z,94.45
2023-03-31T01:31:31.760Z,94.39
2023-03-31T01:34:17.001Z,94.60
2023-03-31T01:37:03.297Z,95.00
2023-03-31T01:39:48.529Z,94.57
2023-03-31T01:42:21.346Z,94.84
2023-03-31T01:44:58.625Z,94.64
2023-03-31T01:47:40.874Z,94.51
2023-03-31T01:50:23.214Z,94.42
2023-03-31T01:52:54.295Z,95.21
2023-03-31T01:55:24.533Z,94.26
2023-03-31T01:57:53.812Z,94.94
2023-03-31T02:00:29.591Z,95.33
2023-03-31T02:03:17.233Z,95.10
2023-03-31T02:05:54.612Z,95.14
2023-03-31T02:08:23.969Z,95.05
2023-03-31T02:10:51.829Z,94.81
2023-03-31T02:13:19.071Z,95.31
2023-03-31T02:15:47.843Z,95.36
2023-03-31T02:18:17.304Z,95.21
2023-03-31T02:20:46.344Z,95.69
2023-03-31T02:23:14.268Z,95.26
2023-03-31T02:25:55.473Z,95.28
2023-03-31T02:28:23.692Z,95.97
2023-03-31T02:31:08.752Z,95.96
2023-03-31T02:33:35.778Z,96.30
2023-03-31T02:36:02.841Z,96.48
2023-03-31T02:38:32.660Z,96.26
2023-03-31T02:40:59.382Z,96.53
2023-03-31T02:43:26.075Z,96.46
2023-03-31T02:45:52.766Z,96.47
2023-03-31T02:48:19.389Z,96.27
2023-03-31T02:50:59.585Z,96.41
2023-03-31T02:53:41.267Z,96.37
2023-03-31T02:56:27.245Z,96.26
2023-03-31T02:59:21.235Z,96.35
2023-03-31T03:02:03.011Z,96.37
2023-03-31T03:04:37.804Z,96.07
2023-03-31T03:07:22.722Z,95.71
2023-03-31T03:09:49.238Z,96.04
2023-03-31T03:12:41.265Z,96.20
2023-03-31T03:15:13.433Z,95.95
2023-03-31T03:17:41.883Z,96.17
2023-03-31T03:20:09.522Z,96.06
2023-03-31T03:22:39.779Z,95.90
2023-03-31T03:25:07.529Z,96.95
2023-03-31T03:27:36.007Z,96.73
2023-03-31T03:30:03.780Z,97.73
2023-03-31T03:32:31.114Z,97.45
2023-03-31T03:34:57.685Z,97.08
2023-03-31T03:37:24.296Z,96.91
2023-03-31T03:39:51.063Z,96.68
2023-03-31T03:42:17.816Z,97.20
2023-03-31T03:44:44.311Z,97.01
2023-03-31T03:47:10.963Z,97.18
2023-03-31T03:49:37.493Z,97.24
2023-03-31T03:52:04.467Z,97.66
2023-03-31T03:54:31.215Z,97.65
2023-03-31T03:56:57.798Z,97.61
2023-03-31T03:59:24.426Z,97.63
2023-03-31T04:01:51.706Z,97.75
2023-03-31T04:04:18.391Z,97.37
2023-03-31T04:06:45.001Z,96.85
2023-03-31T04:09:11.584Z,97.65
2023-03-31T04:11:38.179Z,97.90
2023-03-31T04:14:04.728Z,97.31
2023-03-31T04:16:34.322Z,97.34
2023-03-31T04:19:03.853Z,97.85
2023-03-31T04:21:34.762Z,97.54
2023-03-31T04:24:04.565Z,97.82
2023-03-31T04:26:43.316Z,97.93
2023-03-31T04:29:12.799Z,97.35
2023-03-31T04:31:42.898Z,97.17
2023-03-31T04:34:14.064Z,97.78
2023-03-31T04:36:42.800Z,97.71
2023-03-31T04:39:12.784Z,98.00
2023-03-31T04:41:39.350Z,97.86
2023-03-31T04:44:06.206Z,97.63
2023-03-31T04:46:33.688Z,98.14
2023-03-31T04:49:01.011Z,98.26
2023-03-31T04:51:27.799Z,98.05
2023-03-31T04:53:54.643Z,97.87
2023-03-31T04:56:22.829Z,97.74
2023-03-31T04:58:49.357Z,97.63
2023-03-31T05:01:18.383Z,97.67
2023-03-31T05:03:47.862Z,97.65
2023-03-31T05:06:15.393Z,97.67
2023-03-31T05:08:42.154Z,97.93
2023-03-31T05:11:08.795Z,97.82
2023-03-31T05:13:35.464Z,98.03
2023-03-31T05:16:14.486Z,98.15
2023-03-31T05:18:41.579Z,98.30
2023-03-31T05:21:12.161Z,98.22
2023-03-31T05:23:38.764Z,98.27
2023-03-31T05:26:06.293Z,98.61
2023-03-31T05:28:33.035Z,98.44
2023-03-31T05:31:00.647Z,98.28
2023-03-31T05:33:27.796Z,98.40
2023-03-31T05:35:54.457Z,98.40
2023-03-31T05:38:21.594Z,98.39
2023-03-31T05:40:48.541Z,98.32
2023-03-31T05:43:15.424Z,98.50
2023-03-31T05:45:41.971Z,98.48
2023-03-31T05:48:08.716Z,98.46
2023-03-31T05:50:35.396Z,98.01
2023-03-31T05:53:01.983Z,96.76
2023-03-31T05:55:28.576Z,97.32
2023-03-31T05:57:55.277Z,95.90
2023-03-31T06:00:22.005Z,95.86
2023-03-31T06:02:48.765Z,96.30
2023-03-31T06:05:15.457Z,96.34
2023-03-31T06:07:41.990Z,96.76
2023-03-31T06:10:10.924Z,96.54
2023-03-31T06:12:37.570Z,96.40
2023-03-31T06:15:04.233Z,96.19
2023-03-31T06:17:30.987Z,96.55
2023-03-31T06:19:57.549Z,96.54
2023-03-31T06:22:24.143Z,96.56
2023-03-31T06:24:50.771Z,96.01
2023-03-31T06:27:17.308Z,96.47
2023-03-31T06:29:43.919Z,96.13
2023-03-31T06:32:10.675Z,96.60
2023-03-31T06:34:37.248Z,94.98
2023-03-31T06:37:03.786Z,95.34
2023-03-31T06:39:30.466Z,95.17
2023-03-31T06:41:57.160Z,94.99
2023-03-31T06:44:24.729Z,94.62
2023-03-31T06:46:51.465Z,95.27
2023-03-31T06:49:17.997Z,95.18
2023-03-31T06:51:44.543Z,95.02
2023-03-31T06:54:11.373Z,94.90
2023-03-31T06:56:37.955Z,95.09
2023-03-31T06:59:04.530Z,94.98
2023-03-31T07:01:31.691Z,95.30
2023-03-31T07:03:58.350Z,95.35
2023-03-31T07:06:24.963Z,95.02
2023-03-31T07:08:51.536Z,94.06
2023-03-31T07:11:21.046Z,94.55
2023-03-31T07:13:48.127Z,94.81
2023-03-31T07:16:14.776Z,94.49
2023-03-31T07:18:42.023Z,95.07
2023-03-31T07:21:09.936Z,95.24
2023-03-31T07:23:37.623Z,93.90
2023-03-31T07:26:04.269Z,94.22
2023-03-31T07:28:31.018Z,94.89
2023-03-31T07:30:57.676Z,94.64
2023-03-31T07:33:24.245Z,94.59
2023-03-31T07:36:00.293Z,94.66
2023-03-31T07:38:36.967Z,92.68
2023-03-31T07:41:09.103Z,93.75
2023-03-31T07:43:36.503Z,94.19
2023-03-31T07:46:03.367Z,94.42
2023-03-31T07:48:30.159Z,94.39
2023-03-31T07:50:56.755Z,94.53
2023-03-31T07:53:23.311Z,94.74
2023-03-31T07:55:49.897Z,93.83
2023-03-31T07:58:16.562Z,92.36
2023-03-31T08:00:43.201Z,91.81
2023-03-31T08:03:09.799Z,92.00
2023-03-31T08:05:36.363Z,92.46
2023-03-31T08:08:03.051Z,91.94
2023-03-31T08:10:29.627Z,92.87
2023-03-31T08:12:56.308Z,92.32
2023-03-31T08:15:22.977Z,92.48
2023-03-31T08:17:49.629Z,91.75
2023-03-31T08:20:16.333Z,92.09
2023-03-31T08:22:43.013Z,91.96
2023-03-31T08:25:10.450Z,92.08
2023-03-31T08:27:38.170Z,91.83
2023-03-31T08:30:06.665Z,91.80
2023-03-31T08:32:34.686Z,91.99
2023-03-31T08:35:01.674Z,91.05
2023-03-31T08:37:28.490Z,91.42
2023-03-31T08:39:56.053Z,91.75
2023-03-31T08:42:26.325Z,91.65
2023-03-31T08:45:02.353Z,91.76
2023-03-31T08:47:30.331Z,92.12
2023-03-31T08:50:03.376Z,92.17
2023-03-31T08:52:34.688Z,91.45
2023-03-31T08:55:04.679Z,91.60
2023-03-31T08:57:54.041Z,91.42
2023-03-31T11:40:13.877Z,92.09
2023-03-31T11:42:43.575Z,92.47
2023-03-31T11:45:22.216Z,91.83
2023-03-31T11:47:51.401Z,92.04
2023-03-31T11:52:53.540Z,92.52
2023-03-31T11:55:22.120Z,92.52
2023-03-31T11:57:53.017Z,92.60
2023-03-31T12:00:21.259Z,92.69
2023-03-31T12:02:54.823Z,92.82
2023-03-31T12:05:23.164Z,92.87
2023-03-31T12:07:58.877Z,92.88
2023-03-31T12:10:36.403Z,93.18
2023-03-31T12:13:06.099Z,93.22
2023-03-31T12:15:35.609Z,93.35
2023-03-31T12:18:18.186Z,93.39
2023-03-31T12:20:49.177Z,93.37
2023-03-31T12:23:18.314Z,92.08
2023-03-31T12:25:44.860Z,92.30
2023-03-31T12:28:11.834Z,92.74
2023-03-31T12:30:42.409Z,92.74
2023-03-31T12:33:27.522Z,92.73
2023-03-31T12:35:57.318Z,92.78
2023-03-31T12:38:42.396Z,92.84
2023-03-31T12:41:21.100Z,92.77
2023-03-31T12:43:50.495Z,92.99
2023-03-31T12:46:28.315Z,93.20
2023-03-31T12:49:11.848Z,93.04
2023-03-31T12:51:59.477Z,92.94
2023-03-31T12:54:38.256Z,93.19
2023-03-31T12:57:12.245Z,93.18
2023-03-31T12:59:39.926Z,93.08
2023-03-31T13:02:09.572Z,93.18
2023-03-31T13:04:37.284Z,93.39
2023-03-31T13:07:07.627Z,93.40
2023-03-31T13:09:42.771Z,93.33
2023-03-31T13:12:13.955Z,93.58
2023-03-31T13:14:42.770Z,93.75
2023-03-31T13:17:18.214Z,93.88
2023-03-31T13:19:46.781Z,93.92
2023-03-31T13:22:46.078Z,93.78
2023-03-31T13:25:30.807Z,93.82
2023-03-31T13:27:58.214Z,93.96
2023-03-31T13:30:36.930Z,94.21
2023-03-31T13:33:11.279Z,94.40
2023-03-31T13:35:39.677Z,94.48
2023-03-31T13:38:06.285Z,94.37
2023-03-31T13:40:51.415Z,94.66
2023-03-31T13:43:23.949Z,94.99
2023-03-31T13:46:10.333Z,94.94
2023-03-31T13:48:37.189Z,95.42
2023-03-31T13:51:09.863Z,95.41
2023-03-31T13:53:55.203Z,95.34
2023-03-31T13:56:40.787Z,95.62
2023-03-31T13:59:10.129Z,95.69
2023-03-31T14:01:37.287Z,95.78
2023-03-31T14:04:06.954Z,95.46
2023-03-31T14:06:52.306Z,95.79
2023-03-31T14:09:31.080Z,95.95
2023-03-31T14:12:01.342Z,95.80
2023-03-31T14:14:29.867Z,96.07
2023-03-31T14:17:00.971Z,95.85
2023-03-31T14:19:39.602Z,95.89
2023-03-31T14:22:21.413Z,96.16
2023-03-31T14:24:51.007Z,95.95
2023-03-31T14:27:37.254Z,96.13
2023-03-31T14:30:04.465Z,96.43
2023-03-31T14:32:49.296Z,96.33
2023-03-31T14:35:28.958Z,96.21
2023-03-31T14:37:56.255Z,96.57
2023-03-31T14:40:23.749Z,96.82
2023-03-31T14:42:50.489Z,96.74
2023-03-31T14:45:19.750Z,96.63
2023-03-31T14:47:56.800Z,96.61
2023-03-31T14:50:28.376Z,96.76
2023-03-31T14:52:55.689Z,96.64
2023-03-31T14:55:25.216Z,96.80
2023-03-31T14:57:56.581Z,97.11
2023-03-31T15:00:29.305Z,97.15
2023-03-31T15:02:57.534Z,97.14
2023-03-31T15:05:31.682Z,97.42
2023-03-31T15:07:59.915Z,97.41
2023-03-31T15:10:30.988Z,97.61
2023-03-31T15:12:57.608Z,97.68
2023-03-31T15:15:24.214Z,97.63
2023-03-31T15:17:51.505Z,97.94
2023-03-31T15:20:26.051Z,98.12
2023-03-31T15:22:52.640Z,97.95
2023-03-31T15:25:19.554Z,98.22
2023-03-31T15:27:54.687Z,98.36
2023-03-31T15:30:25.557Z,98.14
2023-03-31T15:32:56.904Z,98.19
2023-03-31T15:35:32.004Z,98.35
2023-03-31T15:37:59.861Z,98.58
2023-03-31T15:40:43.982Z,98.66
2023-03-31T15:43:25.377Z,98.62
2023-03-31T15:45:56.396Z,98.80
2023-03-31T15:48:26.113Z,98.84
2023-03-31T15:50:53.347Z,98.80
2023-03-31T15:53:40.310Z,98.89
2023-03-31T15:56:07.571Z,99.14
2023-03-31T15:58:48.096Z,98.99
2023-03-31T16:01:16.345Z,99.05
2023-03-31T16:03:45.761Z,99.17
2023-03-31T16:06:18.046Z,99.24
2023-03-31T16:08:47.474Z,99.42
2023-03-31T16:11:17.925Z,99.37
2023-03-31T16:13:47.734Z,99.52
2023-03-31T16:16:17.160Z,99.62
2023-03-31T16:18:47.701Z,99.70
2023-03-31T16:21:16.360Z,99.68
2023-03-31T16:23:44.850Z,99.63
2023-03-31T16:26:11.721Z,99.90
2023-03-31T16:28:38.569Z,99.94
2023-03-31T16:31:06.127Z,99.92
2023-03-31T16:33:52.429Z,99.76
2023-03-31T16:36:19.011Z,99.85
2023-03-31T16:38:45.588Z,99.97
2023-03-31T16:41:13.042Z,100.00
2023-03-31T16:43:39.635Z,100.00
2023-03-31T16:46:06.375Z,99.97
2023-03-31T16:48:34.286Z,100.00
2023-03-31T16:51:01.606Z,100.00
2023-03-31T16:53:29.717Z,100.00
2023-03-31T16:55:56.980Z,100.00
2023-03-31T16:58:24.455Z,100.00
2023-03-31T17:00:51.794Z,100.00
2023-03-31T17:03:18.764Z,100.00
2023-03-31T17:05:47.465Z,100.00
2023-03-31T17:08:14.917Z,100.00
2023-03-31T17:10:41.907Z,100.00
2023-03-31T17:13:09.313Z,100.00
2023-03-31T17:15:40.047Z,100.00
2023-03-31T17:18:07.293Z,100.00
2023-03-31T17:20:34.530Z,100.00
2023-03-31T17:23:01.512Z,100.00
2023-03-31T17:25:28.528Z,100.00
2023-03-31T17:28:00.543Z,100.00
2023-03-31T17:30:28.124Z,100.00
2023-03-31T17:32:54.733Z,100.00
2023-03-31T17:35:22.483Z,100.00
2023-03-31T17:37:53.973Z,100.00
2023-03-31T17:40:21.182Z,100.00
2023-03-31T17:42:47.846Z,100.00
2023-03-31T17:45:14.700Z,100.00
2023-03-31T17:47:42.186Z,100.00
2023-03-31T17:50:09.188Z,100.00
2023-03-31T17:52:36.127Z,100.00
2023-03-31T17:55:04.208Z,100.00
2023-03-31T17:57:31.855Z,100.00
2023-03-31T17:59:59.046Z,100.00
2023-03-31T18:02:25.895Z,100.00
2023-03-31T18:04:52.787Z,100.00
2023-03-31T18:07:19.627Z,100.00
2023-03-31T18:09:46.433Z,100.00
2023-03-31T18:12:13.191Z,100.00
2023-03-31T18:14:40.223Z,100.00
2023-03-31T18:17:07.285Z,100.00
2023-03-31T18:19:33.980Z,100.00
2023-03-31T18:22:01.421Z,100.00
2023-03-31T18:24:28.088Z,100.00
2023-03-31T18:26:54.800Z,100.00
2023-03-31T18:29:21.556Z,100.00
2023-03-31T18:31:48.238Z,100.00
2023-03-31T18:34:16.323Z,100.00
2023-03-31T18:36:43.506Z,100.00
2023-03-31T18:39:10.775Z,100.00
2023-03-31T18:41:40.488Z,100.00
2023-03-31T18:44:07.552Z,100.00
2023-03-31T18:46:34.220Z,100.00
2023-03-31T18:49:00.849Z,100.00
2023-03-31T18:51:27.414Z,100.00
2023-03-31T18:53:54.131Z,100.00
2023-03-31T18:56:23.272Z,100.00
2023-03-31T18:58:49.864Z,100.00
2023-03-31T19:01:16.478Z,100.00
2023-03-31T19:03:44.764Z,100.00
2023-03-31T19:06:11.873Z,100.00
2023-03-31T19:08:38.951Z,100.00
2023-03-31T19:11:16.130Z,100.00
2023-03-31T19:13:43.258Z,100.00
2023-03-31T19:16:10.404Z,100.00
2023-03-31T19:18:37.522Z,100.00
2023-03-31T19:21:04.202Z,100.00
2023-03-31T19:23:31.748Z,100.00
2023-03-31T19:25:59.572Z,100.00
2023-03-31T19:28:27.359Z,100.00
2023-03-31T19:30:56.355Z,100.00
2023-03-31T19:33:23.691Z,100.00
2023-03-31T19:35:51.053Z,100.00
2023-03-31T19:38:18.916Z,100.00
2023-03-31T19:40:45.499Z,100.00
2023-03-31T19:43:19.178Z,100.00
2023-03-31T19:45:46.453Z,100.00
2023-03-31T19:48:13.197Z,100.00
2023-03-31T19:50:40.593Z,100.00
2023-03-31T19:53:07.160Z,100.00
2023-03-31T19:55:37.434Z,100.00
2023-03-31T19:58:04.095Z,100.00
2023-03-31T20:00:31.062Z,100.00
2023-03-31T20:02:58.162Z,100.00
2023-03-31T20:05:24.832Z,100.00
2023-03-31T20:07:51.818Z,100.00
2023-03-31T20:10:18.432Z,100.00
2023-03-31T20:12:45.556Z,100.00
2023-03-31T20:15:12.128Z,100.00
2023-03-31T20:17:38.782Z,100.00
2023-03-31T20:20:05.627Z,100.00
2023-03-31T20:22:32.150Z,100.00
2023-03-31T20:24:59.568Z,100.00
2023-03-31T20:27:26.557Z,100.00
2023-03-31T20:29:53.240Z,100.00
2023-03-31T20:32:20.305Z,100.00
2023-03-31T20:34:47.228Z,100.00
2023-03-31T20:37:14.153Z,100.00
2023-03-31T20:39:41.078Z,100.00
2023-03-31T20:42:07.770Z,100.00
2023-03-31T20:44:34.511Z,100.00
2023-03-31T20:47:01.726Z,100.00
2023-03-31T20:49:28.366Z,100.00
2023-03-31T20:51:56.560Z,100.00
2023-03-31T20:54:23.445Z,100.00
2023-03-31T20:56:51.398Z,100.00
2023-03-31T20:59:18.581Z,100.00
2023-03-31T21:01:49.433Z,100.00
2023-03-31T21:04:17.281Z,100.00
2023-03-31T21:06:46.055Z,100.00
2023-03-31T21:09:13.224Z,100.00
2023-03-31T21:11:43.025Z,100.00
2023-03-31T21:14:13.926Z,100.00
2023-03-31T21:16:40.791Z,100.00
2023-03-31T21:19:07.388Z,100.00
2023-03-31T21:21:35.988Z,100.00
2023-03-31T21:24:02.788Z,100.00
2023-03-31T21:26:31.767Z,100.00
2023-03-31T21:28:58.482Z,100.00
2023-03-31T21:31:25.661Z,100.00
2023-03-31T21:33:53.198Z,100.00
2023-03-31T21:36:22.227Z,100.00
2023-03-31T21:38:49.375Z,100.00
2023-03-31T21:41:17.593Z,100.00
2023-03-31T21:43:44.971Z,100.00
2023-03-31T21:46:22.182Z,100.00
2023-03-31T21:48:49.470Z,100.00
2023-03-31T21:51:17.055Z,100.00
2023-03-31T21:53:43.801Z,100.00
2023-03-31T21:56:10.386Z,100.00
2023-03-31T21:58:36.946Z,100.00
2023-03-31T22:01:04.189Z,100.00
2023-03-31T22:03:34.354Z,100.00
2023-03-31T22:06:02.196Z,100.00
2023-03-31T22:08:28.990Z,100.00
2023-03-31T22:10:56.298Z,100.00
2023-03-31T22:13:23.724Z,100.00
2023-03-31T22:15:50.695Z,100.00
2023-03-31T22:18:17.532Z,100.00
2023-03-31T22:20:44.707Z,100.00
2023-03-31T22:23:11.505Z,100.00
2023-03-31T22:25:38.111Z,100.00
2023-03-31T22:28:06.630Z,100.00
2023-03-31T22:30:33.921Z,100.00
2023-03-31T22:33:00.563Z,100.00
2023-03-31T22:35:27.270Z,100.00
2023-03-31T22:37:53.819Z,100.00
2023-03-31T22:40:20.594Z,100.00
2023-03-31T22:42:47.661Z,100.00
2023-03-31T22:45:14.285Z,100.00
2023-03-31T22:47:42.431Z,100.00
2023-03-31T22:50:09.658Z,100.00
2023-03-31T22:52:36.339Z,100.00
2023-03-31T22:55:02.991Z,100.00
2023-03-31T22:57:29.884Z,100.00
2023-03-31T22:59:56.887Z,100.00
2023-03-31T23:02:23.433Z,100.00
2023-03-31T23:04:50.382Z,100.00
2023-03-31T23:07:17.892Z,100.00
2023-03-31T23:09:44.461Z,100.00
2023-03-31T23:12:11.089Z,100.00
2023-03-31T23:14:37.743Z,100.00
2023-03-31T23:17:04.299Z,100.00
2023-03-31T23:19:30.936Z,100.00
2023-03-31T23:21:58.419Z,100.00
2023-03-31T23:24:25.360Z,100.00
2023-03-31T23:26:52.474Z,100.00
2023-03-31T23:29:19.117Z,100.00
2023-03-31T23:31:45.822Z,100.00
2023-03-31T23:34:13.955Z,100.00
2023-03-31T23:36:40.659Z,100.00
2023-03-31T23:39:07.388Z,100.00
2023-03-31T23:41:33.980Z,100.00
2023-03-31T23:44:00.606Z,100.00
2023-03-31T23:46:27.272Z,100.00
2023-03-31T23:48:54.216Z,100.00
2023-03-31T23:51:20.844Z,100.00
2023-03-31T23:53:47.527Z,100.00
2023-03-31T23:56:14.330Z,100.00
2023-03-31T23:58:43.077Z,100.00
